Time,TemperatureF,DewpointF,PressureIn,WindDirection,WindDirectionDegrees,WindSpeedMPH,WindSpeedGustMPH,Humidity,HourlyPrecipIn,Conditions,Clouds,dailyrainin,SolarRadiationWatts/m^2,SoftwareType,DateUTC
2013-01-25 00:00:00,16.1,6.8,30.46,NE,45,0.0,3.0,66,0.00,,---,0.00,0.00,VWS V14.01,2013-01-25 05:00:00,
2013-01-25 00:01:00,15.5,8.4,30.48,NE,34,0.0,0.0,73,0.00,,---,0.00,0.00,VWS V14.01,2013-01-25 05:01:00,
2013-01-25 00:02:00,15.6,8.5,30.48,NE,34,0.0,0.0,73,0.00,,---,0.00,0.00,VWS V14.01,2013-01-25 05:02:00,
2013-01-25 00:03:00,15.6,8.5,30.47,NE,34,0.0,1.0,73,0.00,,---,0.00,0.00,VWS V14.01,2013-01-25 05:03:00,
2013-01-25 00:08:00,15.6,8.2,30.48,NE,38,0.0,3.0,72,0.00,,---,0.00,0.00,VWS V14.01,2013-01-25 05:08:00,
2013-01-25 00:13:00,15.7,8.0,30.48,NE,40,0.0,3.0,71,0.00,,---,0.00,0.00,VWS V14.01,2013-01-25 05:13:00,
2013-01-25 00:18:00,15.8,7.4,30.47,NE,40,0.0,3.0,69,0.00,,---,0.00,0.00,VWS V14.01,2013-01-25 05:18:00,
2013-01-25 00:23:00,15.9,7.2,30.47,NE,40,0.0,3.0,68,0.00,,---,0.00,0.00,VWS V14.01,2013-01-25 05:23:00,
2013-01-25 00:28:00,15.9,7.2,30.47,NE,40,0.0,3.0,68,0.00,,---,0.00,0.00,VWS V14.01,2013-01-25 05:28:00,
2013-01-25 00:30:00,16.4,6.7,30.44,ENE,62,0.0,3.0,65,0.00,,---,0.00,0.00,VWS V14.01,2013-01-25 05:30:00,
2013-01-25 00:33:00,15.9,6.9,30.47,NE,43,1.0,3.0,67,0.00,,---,0.00,0.00,VWS V14.01,2013-01-25 05:33:00,
2013-01-25 00:38:00,16.0,7.0,30.46,NE,44,2.0,3.0,67,0.00,,---,0.00,0.00,VWS V14.01,2013-01-25 05:38:00,
2013-01-25 00:43:00,16.1,7.1,30.46,NE,45,2.0,3.0,67,0.00,,---,0.00,0.00,VWS V14.01,2013-01-25 05:43:00,
2013-01-25 00:48:00,16.1,6.8,30.46,NE,45,0.0,3.0,66,0.00,,---,0.00,0.00,VWS V14.01,2013-01-25 05:48:00,
2013-01-25 00:53:00,16.1,6.8,30.46,NE,45,0.0,3.0,66,0.00,,---,0.00,0.00,VWS V14.01,2013-01-25 05:53:00,
2013-01-25 00:58:00,16.1,6.8,30.46,NE,45,0.0,3.0,66,0.00,,---,0.00,0.00,VWS V14.01,2013-01-25 05:58:00,
2013-01-25 01:00:00,16.1,6.1,30.42,East,92,0.0,7.0,64,0.00,,---,0.00,0.00,VWS V14.01,2013-01-25 06:00:00,
2013-01-25 01:03:00,16.1,6.8,30.45,NE,45,0.0,1.0,66,0.00,,---,0.00,0.00,VWS V14.01,2013-01-25 06:03:00,
2013-01-25 01:08:00,16.2,6.8,30.45,NE,45,0.0,1.0,66,0.00,,---,0.00,0.00,VWS V14.01,2013-01-25 06:08:00,
2013-01-25 01:13:00,16.2,6.8,30.44,NE,45,0.0,1.0,66,0.00,,---,0.00,0.00,VWS V14.01,2013-01-25 06:13:00,
2013-01-25 01:18:00,16.2,6.8,30.44,ENE,57,1.0,3.0,66,0.00,,---,0.00,0.00,VWS V14.01,2013-01-25 06:18:00,
2013-01-25 01:23:00,16.3,6.6,30.44,ENE,62,2.0,3.0,65,0.00,,---,0.00,0.00,VWS V14.01,2013-01-25 06:23:00,
2013-01-25 01:28:00,16.4,6.7,30.44,ENE,62,0.0,3.0,65,0.00,,---,0.00,0.00,VWS V14.01,2013-01-25 06:28:00,
2013-01-25 01:30:00,16.1,6.4,30.42,East,83,1.0,5.0,65,0.00,,---,0.00,0.00,VWS V14.01,2013-01-25 06:30:00,
2013-01-25 01:33:00,16.3,6.3,30.44,ENE,75,3.0,4.0,64,0.00,,---,0.00,0.00,VWS V14.01,2013-01-25 06:33:00,
2013-01-25 01:38:00,16.3,6.3,30.43,East,80,1.0,4.0,64,0.00,,---,0.00,0.00,VWS V14.01,2013-01-25 06:38:00,
2013-01-25 01:43:00,16.2,6.2,30.43,East,80,1.0,4.0,64,0.00,,---,0.00,0.00,VWS V14.01,2013-01-25 06:43:00,
2013-01-25 01:48:00,16.1,6.1,30.43,East,90,1.0,4.0,64,0.00,,---,0.00,0.00,VWS V14.01,2013-01-25 06:48:00,
2013-01-25 01:53:00,16.1,6.1,30.42,ENE,78,2.0,7.0,64,0.00,,---,0.00,0.00,VWS V14.01,2013-01-25 06:53:00,
2013-01-25 01:58:00,16.1,6.1,30.42,East,94,4.0,7.0,64,0.00,,---,0.00,0.00,VWS V14.01,2013-01-25 06:58:00,
2013-01-25 02:00:00,16.3,6.6,30.42,ENE,76,0.0,7.0,65,0.00,,---,0.00,0.00,VWS V14.01,2013-01-25 07:00:00,
2013-01-25 02:03:00,16.1,6.1,30.42,East,92,0.0,1.0,64,0.00,,---,0.00,0.00,VWS V14.01,2013-01-25 07:03:00,
2013-01-25 02:09:00,16.1,6.1,30.42,East,92,3.0,3.0,64,0.00,,---,0.00,0.00,VWS V14.01,2013-01-25 07:09:00,
2013-01-25 02:14:00,16.1,6.1,30.42,East,84,0.0,4.0,64,0.00,,---,0.00,0.00,VWS V14.01,2013-01-25 07:14:00,
2013-01-25 02:19:00,16.1,6.4,30.42,East,84,1.0,4.0,65,0.00,,---,0.00,0.00,VWS V14.01,2013-01-25 07:19:00,
2013-01-25 02:24:00,16.1,6.4,30.42,East,83,3.0,5.0,65,0.00,,---,0.00,0.00,VWS V14.01,2013-01-25 07:24:00,
2013-01-25 02:29:00,16.1,6.4,30.42,East,83,0.0,5.0,65,0.00,,---,0.00,0.00,VWS V14.01,2013-01-25 07:29:00,
2013-01-25 02:30:00,16.3,6.6,30.40,East,81,2.0,6.0,65,0.00,,---,0.00,0.00,VWS V14.01,2013-01-25 07:30:00,
2013-01-25 02:34:00,16.1,6.4,30.42,ESE,107,1.0,3.0,65,0.00,,---,0.00,0.00,VWS V14.01,2013-01-25 07:34:00,
2013-01-25 02:39:00,16.2,6.5,30.42,East,100,1.0,4.0,65,0.00,,---,0.00,0.00,VWS V14.01,2013-01-25 07:39:00,
2013-01-25 02:44:00,16.2,6.5,30.42,ENE,78,0.0,5.0,65,0.00,,---,0.00,0.00,VWS V14.01,2013-01-25 07:44:00,
2013-01-25 02:49:00,16.2,6.8,30.42,ENE,71,0.0,5.0,66,0.00,,---,0.00,0.00,VWS V14.01,2013-01-25 07:49:00,
2013-01-25 02:54:00,16.2,6.5,30.42,East,89,0.0,5.0,65,0.00,,---,0.00,0.00,VWS V14.01,2013-01-25 07:54:00,
2013-01-25 02:59:00,16.2,6.5,30.42,ENE,75,1.0,7.0,65,0.00,,---,0.00,0.00,VWS V14.01,2013-01-25 07:59:00,
2013-01-25 03:00:00,16.6,6.6,30.39,East,86,0.0,5.0,64,0.00,,---,0.00,0.00,VWS V14.01,2013-01-25 08:00:00,
2013-01-25 03:04:00,16.3,6.6,30.41,ENE,77,2.0,6.0,65,0.00,,---,0.00,0.00,VWS V14.01,2013-01-25 08:04:00,
2013-01-25 03:09:00,16.3,6.9,30.40,East,84,1.0,6.0,66,0.00,,---,0.00,0.00,VWS V14.01,2013-01-25 08:09:00,
2013-01-25 03:14:00,16.3,6.9,30.40,East,81,1.0,6.0,66,0.00,,---,0.00,0.00,VWS V14.01,2013-01-25 08:14:00,
2013-01-25 03:19:00,16.3,6.9,30.40,ENE,70,4.0,6.0,66,0.00,,---,0.00,0.00,VWS V14.01,2013-01-25 08:19:00,
2013-01-25 03:24:00,16.3,6.6,30.40,East,86,1.0,6.0,65,0.00,,---,0.00,0.00,VWS V14.01,2013-01-25 08:24:00,
2013-01-25 03:29:00,16.3,6.9,30.40,ENE,61,5.0,6.0,66,0.00,,---,0.00,0.00,VWS V14.01,2013-01-25 08:29:00,
2013-01-25 03:30:00,16.7,6.7,30.38,East,93,0.0,6.0,64,0.00,,---,0.00,0.00,VWS V14.01,2013-01-25 08:30:00,
2013-01-25 03:34:00,16.3,6.6,30.40,East,82,0.0,2.0,65,0.00,,---,0.00,0.00,VWS V14.01,2013-01-25 08:34:00,
2013-01-25 03:39:00,16.4,6.7,30.40,ENE,78,0.0,4.0,65,0.00,,---,0.00,0.00,VWS V14.01,2013-01-25 08:39:00,
2013-01-25 03:44:00,16.5,6.8,30.40,East,79,2.0,4.0,65,0.00,,---,0.00,0.00,VWS V14.01,2013-01-25 08:44:00,
2013-01-25 03:49:00,16.5,6.8,30.39,ENE,77,0.0,5.0,65,0.00,,---,0.00,0.00,VWS V14.01,2013-01-25 08:49:00,
2013-01-25 03:54:00,16.6,6.9,30.40,East,88,0.0,5.0,65,0.00,,---,0.00,0.00,VWS V14.01,2013-01-25 08:54:00,
2013-01-25 03:59:00,16.6,6.6,30.39,East,82,1.0,5.0,64,0.00,,---,0.00,0.00,VWS V14.01,2013-01-25 08:59:00,
2013-01-25 04:00:00,16.6,6.6,30.33,ENE,69,2.0,7.0,64,0.00,,---,0.00,0.00,VWS V14.01,2013-01-25 09:00:00,
2013-01-25 04:04:00,16.6,6.6,30.39,East,86,4.0,4.0,64,0.00,,---,0.00,0.00,VWS V14.01,2013-01-25 09:04:00,
2013-01-25 04:09:00,16.6,6.6,30.39,East,82,2.0,5.0,64,0.00,,---,0.00,0.00,VWS V14.01,2013-01-25 09:09:00,
2013-01-25 04:14:00,16.6,6.6,30.39,ENE,78,1.0,6.0,64,0.00,,---,0.00,0.00,VWS V14.01,2013-01-25 09:14:00,
2013-01-25 04:19:00,16.7,6.7,30.38,East,86,0.0,6.0,64,0.00,,---,0.00,0.00,VWS V14.01,2013-01-25 09:19:00,
2013-01-25 04:24:00,16.7,6.7,30.38,East,94,3.0,6.0,64,0.00,,---,0.00,0.00,VWS V14.01,2013-01-25 09:24:00,
2013-01-25 04:29:00,16.7,7.0,30.38,East,93,4.0,6.0,65,0.00,,---,0.00,0.00,VWS V14.01,2013-01-25 09:29:00,
2013-01-25 04:30:00,16.7,7.0,30.30,East,82,3.0,7.0,65,0.00,,---,0.00,0.00,VWS V14.01,2013-01-25 09:30:00,
2013-01-25 04:34:00,16.7,7.0,30.37,East,80,3.0,3.0,65,0.00,,---,0.00,0.00,VWS V14.01,2013-01-25 09:34:00,
2013-01-25 04:39:00,16.7,7.0,30.35,East,82,2.0,7.0,65,0.00,,---,0.00,0.00,VWS V14.01,2013-01-25 09:39:00,
2013-01-25 04:44:00,16.7,6.7,30.35,ENE,67,0.0,7.0,64,0.00,,---,0.00,0.00,VWS V14.01,2013-01-25 09:44:00,
2013-01-25 04:49:00,16.7,7.0,30.34,East,80,1.0,7.0,65,0.00,,---,0.00,0.00,VWS V14.01,2013-01-25 09:49:00,
2013-01-25 04:54:00,16.6,6.9,30.34,ENE,76,4.0,7.0,65,0.00,,---,0.00,0.00,VWS V14.01,2013-01-25 09:54:00,
2013-01-25 05:00:00,16.6,6.6,30.33,East,92,4.0,7.0,64,0.00,,---,0.00,0.00,VWS V14.01,2013-01-25 10:00:00,
2013-01-25 05:04:00,16.6,6.9,30.33,East,94,2.0,5.0,65,0.00,,---,0.00,0.00,VWS V14.01,2013-01-25 10:04:00,
2013-01-25 05:10:00,16.6,6.9,30.33,East,80,3.0,7.0,65,0.00,,---,0.00,0.00,VWS V14.01,2013-01-25 10:10:00,
2013-01-25 05:15:00,16.6,6.9,30.33,ESE,113,1.0,7.0,65,0.00,,---,0.00,0.00,VWS V14.01,2013-01-25 10:15:00,
2013-01-25 05:20:00,16.6,6.9,30.32,East,82,1.0,7.0,65,0.00,,---,0.00,0.00,VWS V14.01,2013-01-25 10:20:00,
2013-01-25 05:25:00,16.6,6.6,30.31,East,80,2.0,7.0,64,0.00,,---,0.00,0.00,VWS V14.01,2013-01-25 10:25:00,
2013-01-25 05:30:00,16.7,7.0,30.30,East,82,4.0,7.0,65,0.00,,---,0.00,0.00,VWS V14.01,2013-01-25 10:30:00,
2013-01-25 05:35:00,16.7,7.0,30.30,ENE,77,0.0,5.0,65,0.00,,---,0.00,0.00,VWS V14.01,2013-01-25 10:35:00,
2013-01-25 05:40:00,16.7,7.0,30.30,ESE,113,2.0,6.0,65,0.00,,---,0.00,0.00,VWS V14.01,2013-01-25 10:40:00,
2013-01-25 05:45:00,16.7,6.7,30.31,ESE,111,0.0,6.0,64,0.00,,---,0.00,0.00,VWS V14.01,2013-01-25 10:45:00,
2013-01-25 05:50:00,16.7,7.0,30.29,East,83,2.0,6.0,65,0.00,,---,0.00,0.00,VWS V14.01,2013-01-25 10:50:00,
2013-01-25 05:55:00,16.7,7.0,30.29,ENE,76,1.0,7.0,65,0.00,,---,0.00,0.00,VWS V14.01,2013-01-25 10:55:00,
2013-01-25 06:00:00,16.7,7.0,30.27,East,80,3.0,10.0,65,0.00,,---,0.00,0.00,VWS V14.01,2013-01-25 11:00:00,
2013-01-25 06:05:00,16.7,7.0,30.27,ENE,76,4.0,10.0,65,0.00,,---,0.00,0.00,VWS V14.01,2013-01-25 11:05:00,
2013-01-25 06:10:00,16.7,7.0,30.26,East,88,3.0,10.0,65,0.00,,---,0.00,0.00,VWS V14.01,2013-01-25 11:10:00,
2013-01-25 06:15:00,16.6,6.9,30.26,ENE,71,6.0,10.0,65,0.00,,---,0.00,0.00,VWS V14.01,2013-01-25 11:15:00,
2013-01-25 06:20:00,16.6,6.9,30.26,East,84,2.0,10.0,65,0.00,,---,0.00,0.00,VWS V14.01,2013-01-25 11:20:00,
2013-01-25 06:25:00,16.6,6.9,30.25,ENE,76,4.0,10.0,65,0.00,,---,0.00,0.00,VWS V14.01,2013-01-25 11:25:00,
2013-01-25 06:30:00,16.6,6.9,30.26,East,82,2.0,10.0,65,0.00,,---,0.00,0.00,VWS V14.01,2013-01-25 11:30:00,
2013-01-25 06:35:00,16.6,6.9,30.26,East,86,0.0,7.0,65,0.00,,---,0.00,0.00,VWS V14.01,2013-01-25 11:35:00,
2013-01-25 06:40:00,16.7,7.0,30.26,ENE,65,0.0,7.0,65,0.00,,---,0.00,0.00,VWS V14.01,2013-01-25 11:40:00,
2013-01-25 06:45:00,16.7,7.0,30.26,East,92,1.0,7.0,65,0.00,,---,0.00,0.00,VWS V14.01,2013-01-25 11:45:00,
2013-01-25 06:50:00,16.7,7.0,30.26,ESE,107,2.0,7.0,65,0.00,,---,0.00,0.00,VWS V14.01,2013-01-25 11:50:00,
2013-01-25 06:55:00,16.8,7.1,30.26,East,91,1.0,7.0,65,0.00,,---,0.00,0.00,VWS V14.01,2013-01-25 11:55:00,
2013-01-25 07:00:00,16.8,7.1,30.27,SE,138,0.0,7.0,65,0.00,,---,0.00,0.00,VWS V14.01,2013-01-25 12:00:00,
2013-01-25 07:05:00,16.8,7.1,30.27,SE,138,0.0,1.0,65,0.00,,---,0.00,0.00,VWS V14.01,2013-01-25 12:05:00,
2013-01-25 07:10:00,16.8,7.1,30.27,SE,138,0.0,1.0,65,0.00,,---,0.00,0.00,VWS V14.01,2013-01-25 12:10:00,
2013-01-25 07:15:00,16.8,7.4,30.27,SE,138,0.0,2.0,66,0.00,,---,0.00,0.00,VWS V14.01,2013-01-25 12:15:00,
2013-01-25 07:20:00,16.8,7.4,30.27,ESE,103,3.0,3.0,66,0.00,,---,0.00,0.00,VWS V14.01,2013-01-25 12:20:00,
2013-01-25 07:25:00,16.8,7.4,30.27,SE,132,0.0,3.0,66,0.00,,---,0.00,0.00,VWS V14.01,2013-01-25 12:25:00,
2013-01-25 07:30:00,16.9,7.5,30.25,East,90,1.0,4.0,66,0.00,,---,0.00,0.00,VWS V14.01,2013-01-25 12:30:00,
2013-01-25 07:35:00,16.9,7.5,30.25,ENE,75,2.0,4.0,66,0.00,,---,0.00,0.00,VWS V14.01,2013-01-25 12:35:00,
2013-01-25 07:40:00,16.9,7.5,30.25,East,80,2.0,4.0,66,0.00,,---,0.00,0.00,VWS V14.01,2013-01-25 12:40:00,
2013-01-25 07:45:00,16.9,7.5,30.25,East,79,0.0,4.0,66,0.00,,---,0.00,0.00,VWS V14.01,2013-01-25 12:45:00,
2013-01-25 07:50:00,16.9,7.5,30.25,ESE,103,0.0,4.0,66,0.00,,---,0.00,0.00,VWS V14.01,2013-01-25 12:50:00,
2013-01-25 07:55:00,16.9,7.8,30.24,East,84,2.0,5.0,67,0.00,,---,0.00,0.00,VWS V14.01,2013-01-25 12:55:00,
2013-01-25 08:00:00,16.8,8.4,30.23,East,86,2.0,3.0,69,0.00,,---,0.00,0.00,VWS V14.01,2013-01-25 13:00:00,
2013-01-25 08:05:00,16.6,9.5,30.23,East,96,0.0,6.0,73,0.00,,---,0.00,0.00,VWS V14.01,2013-01-25 13:05:00,
2013-01-25 08:10:00,16.4,10.2,30.24,ESE,111,2.0,6.0,76,0.00,,---,0.00,5.00,VWS V14.01,2013-01-25 13:10:00,
2013-01-25 08:15:00,16.2,10.6,30.23,ESE,121,2.0,6.0,78,0.00,,---,0.00,7.00,VWS V14.01,2013-01-25 13:15:00,
2013-01-25 08:20:00,16.1,10.8,30.23,ESE,102,0.0,6.0,79,0.00,,---,0.00,7.00,VWS V14.01,2013-01-25 13:20:00,
2013-01-25 08:25:00,15.9,11.1,30.22,East,88,3.0,8.0,81,0.00,,---,0.00,7.00,VWS V14.01,2013-01-25 13:25:00,
2013-01-25 08:30:00,15.5,11.0,30.21,ENE,69,5.0,5.0,82,0.00,,---,0.00,9.00,VWS V14.01,2013-01-25 13:30:00,
2013-01-25 08:36:00,15.3,11.1,30.20,ENE,78,5.0,6.0,83,0.00,,---,0.00,11.00,VWS V14.01,2013-01-25 13:36:00,
2013-01-25 08:40:00,15.2,11.2,30.20,East,85,4.0,6.0,84,0.00,,---,0.00,18.00,VWS V14.01,2013-01-25 13:40:00,
2013-01-25 08:45:00,15.1,11.4,30.20,ENE,77,2.0,6.0,85,0.00,,---,0.00,19.00,VWS V14.01,2013-01-25 13:45:00,
2013-01-25 08:51:00,15.1,11.7,30.20,East,88,2.0,8.0,86,0.00,,---,0.00,23.00,VWS V14.01,2013-01-25 13:51:00,
2013-01-25 08:56:00,15.0,11.6,30.20,East,84,1.0,8.0,86,0.00,,---,0.00,23.00,VWS V14.01,2013-01-25 13:56:00,
2013-01-25 09:00:00,15.6,12.7,30.19,East,90,1.0,5.0,88,0.00,,---,0.00,44.00,VWS V14.01,2013-01-25 14:00:00,
2013-01-25 09:01:00,15.0,11.6,30.20,East,91,1.0,1.0,86,0.00,,---,0.00,26.00,VWS V14.01,2013-01-25 14:01:00,
2013-01-25 09:06:00,15.1,11.9,30.20,ENE,76,0.0,4.0,87,0.00,,---,0.00,25.00,VWS V14.01,2013-01-25 14:06:00,
2013-01-25 09:11:00,15.1,11.9,30.20,East,97,2.0,4.0,87,0.00,,---,0.00,25.00,VWS V14.01,2013-01-25 14:11:00,
2013-01-25 09:16:00,15.2,12.0,30.20,East,95,1.0,4.0,87,0.00,,---,0.00,26.00,VWS V14.01,2013-01-25 14:16:00,
2013-01-25 09:21:00,15.2,12.0,30.20,SE,136,3.0,4.0,87,0.00,,---,0.00,32.00,VWS V14.01,2013-01-25 14:21:00,
2013-01-25 09:26:00,15.2,12.0,30.20,SE,138,1.0,4.0,87,0.00,,---,0.00,37.00,VWS V14.01,2013-01-25 14:26:00,
2013-01-25 09:30:00,16.1,13.2,30.17,ESE,112,1.0,7.0,88,0.00,,---,0.00,77.00,VWS V14.01,2013-01-25 14:30:00,
2013-01-25 09:31:00,15.3,12.4,30.20,SSE,148,0.0,0.0,88,0.00,,---,0.00,42.00,VWS V14.01,2013-01-25 14:31:00,
2013-01-25 09:36:00,15.3,12.4,30.20,ESE,107,0.0,3.0,88,0.00,,---,0.00,40.00,VWS V14.01,2013-01-25 14:36:00,
2013-01-25 09:41:00,15.4,12.5,30.20,SE,136,0.0,3.0,88,0.00,,---,0.00,40.00,VWS V14.01,2013-01-25 14:41:00,
2013-01-25 09:46:00,15.4,12.5,30.20,SE,130,0.0,3.0,88,0.00,,---,0.00,37.00,VWS V14.01,2013-01-25 14:46:00,
2013-01-25 09:51:00,15.5,12.6,30.19,SE,130,0.0,3.0,88,0.00,,---,0.00,35.00,VWS V14.01,2013-01-25 14:51:00,
2013-01-25 09:56:00,15.6,12.7,30.19,East,101,2.0,3.0,88,0.00,,---,0.00,42.00,VWS V14.01,2013-01-25 14:56:00,
2013-01-25 10:00:00,16.3,13.4,30.14,East,84,0.0,6.0,88,0.00,,---,0.00,95.00,VWS V14.01,2013-01-25 15:00:00,
2013-01-25 10:01:00,15.6,12.7,30.18,ESE,111,4.0,4.0,88,0.00,,---,0.00,42.00,VWS V14.01,2013-01-25 15:01:00,
2013-01-25 10:06:00,15.6,12.7,30.18,East,92,0.0,5.0,88,0.00,,---,0.00,28.00,VWS V14.01,2013-01-25 15:06:00,
2013-01-25 10:11:00,15.6,12.7,30.18,ESE,119,1.0,5.0,88,0.00,,---,0.00,60.00,VWS V14.01,2013-01-25 15:11:00,
2013-01-25 10:16:00,15.7,12.8,30.18,East,82,0.0,7.0,88,0.00,,---,0.00,76.00,VWS V14.01,2013-01-25 15:16:00,
2013-01-25 10:21:00,15.8,12.9,30.18,ESE,123,0.0,7.0,88,0.00,,---,0.00,90.00,VWS V14.01,2013-01-25 15:21:00,
2013-01-25 10:26:00,16.0,13.1,30.17,ENE,74,0.0,7.0,88,0.00,,---,0.00,91.00,VWS V14.01,2013-01-25 15:26:00,
2013-01-25 10:30:00,17.1,14.4,30.12,East,83,0.0,5.0,89,0.00,,---,0.00,83.00,VWS V14.01,2013-01-25 15:30:00,
2013-01-25 10:31:00,16.2,13.3,30.17,ENE,77,3.0,3.0,88,0.00,,---,0.00,77.00,VWS V14.01,2013-01-25 15:31:00,
2013-01-25 10:36:00,16.2,13.3,30.17,East,93,0.0,6.0,88,0.00,,---,0.00,90.00,VWS V14.01,2013-01-25 15:36:00,
2013-01-25 10:41:00,16.3,13.4,30.16,East,97,0.0,6.0,88,0.00,,---,0.00,88.00,VWS V14.01,2013-01-25 15:41:00,
2013-01-25 10:46:00,16.3,13.4,30.16,East,91,3.0,6.0,88,0.00,,---,0.00,98.00,VWS V14.01,2013-01-25 15:46:00,
2013-01-25 10:51:00,16.3,13.4,30.16,ENE,74,1.0,6.0,88,0.00,,---,0.00,95.00,VWS V14.01,2013-01-25 15:51:00,
2013-01-25 10:56:00,16.3,13.4,30.15,East,80,0.0,6.0,88,0.00,,---,0.00,93.00,VWS V14.01,2013-01-25 15:56:00,
2013-01-25 11:00:00,17.8,15.1,30.10,ENE,78,4.0,6.0,89,0.00,,---,0.00,107.00,VWS V14.01,2013-01-25 16:00:00,
2013-01-25 11:01:00,16.3,13.4,30.14,East,84,2.0,2.0,88,0.00,,---,0.00,95.00,VWS V14.01,2013-01-25 16:01:00,
2013-01-25 11:06:00,16.4,13.5,30.13,East,89,1.0,5.0,88,0.00,,---,0.00,88.00,VWS V14.01,2013-01-25 16:06:00,
2013-01-25 11:11:00,16.5,13.8,30.13,East,94,2.0,5.0,89,0.00,,---,0.00,111.00,VWS V14.01,2013-01-25 16:11:00,
2013-01-25 11:16:00,16.6,13.9,30.13,East,80,2.0,5.0,89,0.00,,---,0.00,109.00,VWS V14.01,2013-01-25 16:16:00,
2013-01-25 11:21:00,16.8,14.1,30.13,East,92,2.0,5.0,89,0.00,,---,0.00,111.00,VWS V14.01,2013-01-25 16:21:00,
2013-01-25 11:26:00,17.0,14.3,30.12,East,82,0.0,5.0,89,0.00,,---,0.00,97.00,VWS V14.01,2013-01-25 16:26:00,
2013-01-25 11:30:00,18.6,15.9,30.09,East,84,2.0,5.0,89,0.00,,---,0.00,142.00,VWS V14.01,2013-01-25 16:30:00,
2013-01-25 11:32:00,17.2,14.5,30.12,East,83,0.0,1.0,89,0.00,,---,0.00,79.00,VWS V14.01,2013-01-25 16:32:00,
2013-01-25 11:37:00,17.3,14.6,30.12,East,93,0.0,6.0,89,0.00,,---,0.00,81.00,VWS V14.01,2013-01-25 16:37:00,
2013-01-25 11:42:00,17.4,14.7,30.11,East,84,3.0,6.0,89,0.00,,---,0.00,90.00,VWS V14.01,2013-01-25 16:42:00,
2013-01-25 11:47:00,17.5,14.8,30.11,East,86,1.0,6.0,89,0.00,,---,0.00,90.00,VWS V14.01,2013-01-25 16:47:00,
2013-01-25 11:52:00,17.6,14.9,30.11,East,88,0.0,6.0,89,0.00,,---,0.00,100.00,VWS V14.01,2013-01-25 16:52:00,
2013-01-25 11:57:00,17.7,15.0,30.10,East,83,0.0,6.0,89,0.00,,---,0.00,102.00,VWS V14.01,2013-01-25 16:57:00,
2013-01-25 12:00:00,19.7,16.7,30.07,SE,134,0.0,4.0,88,0.00,,---,0.00,132.00,VWS V14.01,2013-01-25 17:00:00,
2013-01-25 12:02:00,17.8,15.1,30.10,East,100,4.0,4.0,89,0.00,,---,0.00,107.00,VWS V14.01,2013-01-25 17:02:00,
2013-01-25 12:07:00,17.8,15.1,30.10,East,82,1.0,5.0,89,0.00,,---,0.00,95.00,VWS V14.01,2013-01-25 17:07:00,
2013-01-25 12:12:00,17.9,15.2,30.09,ENE,78,2.0,5.0,89,0.00,,---,0.00,93.00,VWS V14.01,2013-01-25 17:12:00,
2013-01-25 12:17:00,18.0,15.3,30.09,East,85,2.0,5.0,89,0.00,,---,0.00,118.00,VWS V14.01,2013-01-25 17:17:00,
2013-01-25 12:22:00,18.1,15.4,30.09,ENE,78,0.0,5.0,89,0.00,,---,0.00,141.00,VWS V14.01,2013-01-25 17:22:00,
2013-01-25 12:27:00,18.5,15.8,30.09,East,82,1.0,5.0,89,0.00,,---,0.00,146.00,VWS V14.01,2013-01-25 17:27:00,
2013-01-25 12:30:00,20.7,17.7,30.06,ENE,77,0.0,5.0,88,0.00,,---,0.00,121.00,VWS V14.01,2013-01-25 17:30:00,
2013-01-25 12:32:00,18.7,16.0,30.08,East,95,1.0,2.0,89,0.00,,---,0.00,137.00,VWS V14.01,2013-01-25 17:32:00,
2013-01-25 12:37:00,19.0,16.3,30.08,ENE,78,2.0,4.0,89,0.00,,---,0.00,134.00,VWS V14.01,2013-01-25 17:37:00,
2013-01-25 12:42:00,19.1,16.1,30.08,ENE,78,1.0,4.0,88,0.00,,---,0.00,98.00,VWS V14.01,2013-01-25 17:42:00,
2013-01-25 12:47:00,19.3,16.3,30.08,ENE,78,0.0,4.0,88,0.00,,---,0.00,102.00,VWS V14.01,2013-01-25 17:47:00,
2013-01-25 12:52:00,19.3,16.3,30.08,East,86,0.0,4.0,88,0.00,,---,0.00,105.00,VWS V14.01,2013-01-25 17:52:00,
2013-01-25 12:57:00,19.5,16.5,30.07,East,86,0.0,4.0,88,0.00,,---,0.00,121.00,VWS V14.01,2013-01-25 17:57:00,
2013-01-25 13:00:00,21.2,17.4,30.04,South,175,1.0,4.0,85,0.00,,---,0.00,105.00,VWS V14.01,2013-01-25 18:00:00,
2013-01-25 13:02:00,19.8,17.1,30.07,SE,134,1.0,1.0,89,0.00,,---,0.00,118.00,VWS V14.01,2013-01-25 18:02:00,
2013-01-25 13:07:00,20.0,17.0,30.06,SSE,157,1.0,5.0,88,0.00,,---,0.00,104.00,VWS V14.01,2013-01-25 18:07:00,
2013-01-25 13:12:00,20.0,16.8,30.06,ESE,105,2.0,5.0,87,0.00,,---,0.00,104.00,VWS V14.01,2013-01-25 18:12:00,
2013-01-25 13:17:00,20.1,16.9,30.06,SE,125,0.0,5.0,87,0.00,,---,0.00,86.00,VWS V14.01,2013-01-25 18:17:00,
2013-01-25 13:22:00,20.2,17.0,30.06,ENE,76,0.0,5.0,87,0.00,,---,0.00,91.00,VWS V14.01,2013-01-25 18:22:00,
2013-01-25 13:27:00,20.4,17.2,30.06,ENE,76,0.0,5.0,87,0.00,,---,0.00,105.00,VWS V14.01,2013-01-25 18:27:00,
2013-01-25 13:30:00,21.5,17.7,30.02,South,182,2.0,5.0,85,0.00,,---,0.00,130.00,VWS V14.01,2013-01-25 18:30:00,
2013-01-25 13:32:00,20.8,17.5,30.06,ENE,77,1.0,1.0,87,0.00,,---,0.00,135.00,VWS V14.01,2013-01-25 18:32:00,
2013-01-25 13:37:00,21.2,17.9,30.05,SSE,151,2.0,3.0,87,0.00,,---,0.00,114.00,VWS V14.01,2013-01-25 18:37:00,
2013-01-25 13:42:00,21.4,18.1,30.05,SSE,151,0.0,3.0,87,0.00,,---,0.00,105.00,VWS V14.01,2013-01-25 18:42:00,
2013-01-25 13:47:00,21.6,18.1,30.05,SSE,151,0.0,3.0,86,0.00,,---,0.00,97.00,VWS V14.01,2013-01-25 18:47:00,
2013-01-25 13:52:00,21.6,18.1,30.04,South,175,1.0,4.0,86,0.00,,---,0.00,113.00,VWS V14.01,2013-01-25 18:52:00,
2013-01-25 13:57:00,21.4,17.6,30.05,South,175,0.0,4.0,85,0.00,,---,0.00,109.00,VWS V14.01,2013-01-25 18:57:00,
2013-01-25 14:00:00,20.2,16.7,30.02,WSW,254,1.0,4.0,86,0.00,,---,0.00,91.00,VWS V14.01,2013-01-25 19:00:00,
2013-01-25 14:02:00,21.1,17.3,30.04,South,178,3.0,4.0,85,0.00,,---,0.00,109.00,VWS V14.01,2013-01-25 19:02:00,
2013-01-25 14:07:00,21.0,17.5,30.04,South,182,0.0,5.0,86,0.00,,---,0.00,116.00,VWS V14.01,2013-01-25 19:07:00,
2013-01-25 14:12:00,21.4,17.9,30.04,South,182,0.0,5.0,86,0.00,,---,0.00,100.00,VWS V14.01,2013-01-25 19:12:00,
2013-01-25 14:17:00,21.7,18.2,30.03,South,182,1.0,5.0,86,0.00,,---,0.00,118.00,VWS V14.01,2013-01-25 19:17:00,
2013-01-25 14:22:00,21.5,18.0,30.03,South,182,1.0,5.0,86,0.00,,---,0.00,121.00,VWS V14.01,2013-01-25 19:22:00,
2013-01-25 14:28:00,21.5,17.7,30.03,South,182,2.0,5.0,85,0.00,,---,0.00,125.00,VWS V14.01,2013-01-25 19:28:00,
2013-01-25 14:30:00,19.8,16.3,30.01,WSW,254,1.0,4.0,86,0.00,,---,0.00,77.00,VWS V14.01,2013-01-25 19:30:00,
2013-01-25 14:33:00,21.5,18.0,30.03,South,182,0.0,4.0,86,0.00,,---,0.00,144.00,VWS V14.01,2013-01-25 19:33:00,
2013-01-25 14:38:00,21.7,18.2,30.02,South,182,1.0,4.0,86,0.00,,---,0.00,113.00,VWS V14.01,2013-01-25 19:38:00,
2013-01-25 14:43:00,21.6,18.1,30.02,WSW,254,2.0,4.0,86,0.00,,---,0.00,102.00,VWS V14.01,2013-01-25 19:43:00,
2013-01-25 14:48:00,21.0,17.2,30.02,WSW,254,1.0,4.0,85,0.00,,---,0.00,93.00,VWS V14.01,2013-01-25 19:48:00,
2013-01-25 14:53:00,20.6,16.8,30.02,WSW,254,1.0,4.0,85,0.00,,---,0.00,93.00,VWS V14.01,2013-01-25 19:53:00,
2013-01-25 14:58:00,20.2,16.7,30.02,WSW,254,2.0,4.0,86,0.00,,---,0.00,91.00,VWS V14.01,2013-01-25 19:58:00,
2013-01-25 15:00:00,20.2,16.7,30.01,WSW,241,0.0,4.0,86,0.00,,---,0.00,65.00,VWS V14.01,2013-01-25 20:00:00,
2013-01-25 15:03:00,20.1,16.6,30.02,WSW,255,1.0,3.0,86,0.00,,---,0.00,88.00,VWS V14.01,2013-01-25 20:03:00,
2013-01-25 15:08:00,20.0,16.5,30.03,WSW,255,3.0,3.0,86,0.00,,---,0.00,83.00,VWS V14.01,2013-01-25 20:08:00,
2013-01-25 15:13:00,19.9,16.4,30.02,WSW,253,0.0,4.0,86,0.00,,---,0.00,84.00,VWS V14.01,2013-01-25 20:13:00,
2013-01-25 15:18:00,19.8,16.3,30.02,WSW,256,2.0,4.0,86,0.00,,---,0.00,83.00,VWS V14.01,2013-01-25 20:18:00,
2013-01-25 15:23:00,19.8,16.3,30.02,WSW,255,2.0,4.0,86,0.00,,---,0.00,83.00,VWS V14.01,2013-01-25 20:23:00,
2013-01-25 15:28:00,19.8,16.3,30.02,WSW,255,3.0,4.0,86,0.00,,---,0.00,79.00,VWS V14.01,2013-01-25 20:28:00,
2013-01-25 15:30:00,20.2,16.4,30.01,WSW,238,0.0,3.0,85,0.00,,---,0.00,39.00,VWS V14.01,2013-01-25 20:30:00,
2013-01-25 15:33:00,19.8,16.3,30.01,WSW,254,1.0,2.0,86,0.00,,---,0.00,74.00,VWS V14.01,2013-01-25 20:33:00,
2013-01-25 15:38:00,19.9,16.4,30.02,WSW,255,1.0,2.0,86,0.00,,---,0.00,69.00,VWS V14.01,2013-01-25 20:38:00,
2013-01-25 15:43:00,19.9,16.4,30.01,WSW,254,0.0,3.0,86,0.00,,---,0.00,65.00,VWS V14.01,2013-01-25 20:43:00,
2013-01-25 15:48:00,20.0,16.5,30.01,WSW,242,0.0,4.0,86,0.00,,---,0.00,65.00,VWS V14.01,2013-01-25 20:48:00,
2013-01-25 15:53:00,20.1,16.6,30.01,WSW,241,0.0,4.0,86,0.00,,---,0.00,65.00,VWS V14.01,2013-01-25 20:53:00,
2013-01-25 15:58:00,20.2,16.7,30.01,WSW,241,1.0,4.0,86,0.00,,---,0.00,62.00,VWS V14.01,2013-01-25 20:58:00,
2013-01-25 16:00:00,19.9,15.9,30.03,SW,232,0.0,5.0,84,0.00,,---,0.00,14.00,VWS V14.01,2013-01-25 21:00:00,
2013-01-25 16:03:00,20.2,16.7,30.01,WSW,241,0.0,1.0,86,0.00,,---,0.00,62.00,VWS V14.01,2013-01-25 21:03:00,
2013-01-25 16:08:00,20.2,16.7,30.01,WSW,241,0.0,2.0,86,0.00,,---,0.00,58.00,VWS V14.01,2013-01-25 21:08:00,
2013-01-25 16:13:00,20.2,16.4,30.01,WSW,241,0.0,2.0,85,0.00,,---,0.00,53.00,VWS V14.01,2013-01-25 21:13:00,
2013-01-25 16:18:00,20.2,16.4,30.01,WSW,238,3.0,3.0,85,0.00,,---,0.00,47.00,VWS V14.01,2013-01-25 21:18:00,
2013-01-25 16:23:00,20.2,16.4,30.01,WSW,238,1.0,3.0,85,0.00,,---,0.00,42.00,VWS V14.01,2013-01-25 21:23:00,
2013-01-25 16:28:00,20.2,16.4,30.01,WSW,238,0.0,3.0,85,0.00,,---,0.00,39.00,VWS V14.01,2013-01-25 21:28:00,
2013-01-25 16:30:00,19.6,15.6,30.03,SW,232,0.0,4.0,84,0.00,,---,0.00,0.00,VWS V14.01,2013-01-25 21:30:00,
2013-01-25 16:33:00,20.1,16.3,30.01,WSW,238,2.0,2.0,85,0.00,,---,0.00,37.00,VWS V14.01,2013-01-25 21:33:00,
2013-01-25 16:38:00,20.1,16.0,30.01,WSW,238,0.0,4.0,84,0.00,,---,0.00,32.00,VWS V14.01,2013-01-25 21:38:00,
2013-01-25 16:43:00,20.0,15.9,30.02,WSW,238,0.0,4.0,84,0.00,,---,0.00,28.00,VWS V14.01,2013-01-25 21:43:00,
2013-01-25 16:48:00,20.0,15.9,30.02,SW,232,3.0,4.0,84,0.00,,---,0.00,23.00,VWS V14.01,2013-01-25 21:48:00,
2013-01-25 16:53:00,19.9,15.9,30.02,SW,228,0.0,4.0,84,0.00,,---,0.00,19.00,VWS V14.01,2013-01-25 21:53:00,
2013-01-25 16:58:00,19.9,15.9,30.02,SW,232,4.0,5.0,84,0.00,,---,0.00,14.00,VWS V14.01,2013-01-25 21:58:00,
2013-01-25 17:00:00,19.4,15.4,30.03,SW,232,0.0,4.0,84,0.00,,---,0.00,0.00,VWS V14.01,2013-01-25 22:00:00,
2013-01-25 17:03:00,19.8,15.8,30.02,SW,232,2.0,2.0,84,0.00,,---,0.00,14.00,VWS V14.01,2013-01-25 22:03:00,
2013-01-25 17:08:00,19.8,15.8,30.03,SW,232,3.0,4.0,84,0.00,,---,0.00,11.00,VWS V14.01,2013-01-25 22:08:00,
2013-01-25 17:13:00,19.8,15.8,30.03,SW,232,1.0,4.0,84,0.00,,---,0.00,9.00,VWS V14.01,2013-01-25 22:13:00,
2013-01-25 17:18:00,19.7,15.7,30.02,SW,232,1.0,4.0,84,0.00,,---,0.00,7.00,VWS V14.01,2013-01-25 22:18:00,
2013-01-25 17:23:00,19.7,15.7,30.03,SW,232,1.0,4.0,84,0.00,,---,0.00,5.00,VWS V14.01,2013-01-25 22:23:00,
2013-01-25 17:28:00,19.6,15.6,30.03,SW,232,2.0,4.0,84,0.00,,---,0.00,0.00,VWS V14.01,2013-01-25 22:28:00,
2013-01-25 17:30:00,19.4,15.6,30.04,SW,232,0.0,2.0,85,0.00,,---,0.00,0.00,VWS V14.01,2013-01-25 22:30:00,
2013-01-25 17:33:00,19.6,15.6,30.03,SW,232,1.0,4.0,84,0.00,,---,0.00,0.00,VWS V14.01,2013-01-25 22:33:00,
2013-01-25 17:38:00,19.6,15.6,30.03,SW,232,0.0,4.0,84,0.00,,---,0.00,0.00,VWS V14.01,2013-01-25 22:38:00,
2013-01-25 17:43:00,19.5,15.5,30.04,SW,232,1.0,4.0,84,0.00,,---,0.00,0.00,VWS V14.01,2013-01-25 22:43:00,
2013-01-25 17:48:00,19.5,15.5,30.03,SW,232,0.0,4.0,84,0.00,,---,0.00,0.00,VWS V14.01,2013-01-25 22:48:00,
2013-01-25 17:53:00,19.5,15.5,30.03,SW,232,0.0,4.0,84,0.00,,---,0.00,0.00,VWS V14.01,2013-01-25 22:53:00,
2013-01-25 17:58:00,19.5,15.5,30.03,SW,232,0.0,4.0,84,0.00,,---,0.00,0.00,VWS V14.01,2013-01-25 22:58:00,
2013-01-25 18:00:00,19.5,16.0,30.04,SW,234,1.0,5.0,86,0.00,,---,0.00,0.00,VWS V14.01,2013-01-25 23:00:00,
2013-01-25 18:03:00,19.4,15.6,30.03,SW,232,0.0,1.0,85,0.00,,---,0.00,0.00,VWS V14.01,2013-01-25 23:03:00,
2013-01-25 18:08:00,19.4,15.6,30.03,SW,232,0.0,1.0,85,0.00,,---,0.00,0.00,VWS V14.01,2013-01-25 23:08:00,
2013-01-25 18:14:00,19.4,15.6,30.03,SW,232,0.0,1.0,85,0.00,,---,0.00,0.00,VWS V14.01,2013-01-25 23:14:00,
2013-01-25 18:19:00,19.4,15.6,30.03,SW,232,0.0,2.0,85,0.00,,---,0.00,0.00,VWS V14.01,2013-01-25 23:19:00,
2013-01-25 18:24:00,19.4,15.6,30.03,SW,232,0.0,2.0,85,0.00,,---,0.00,0.00,VWS V14.01,2013-01-25 23:24:00,
2013-01-25 18:28:00,19.4,15.6,30.04,SW,232,0.0,2.0,85,0.00,,---,0.00,0.00,VWS V14.01,2013-01-25 23:28:00,
2013-01-25 18:30:00,19.7,15.9,30.05,SW,217,4.0,8.0,85,0.00,,---,0.00,0.00,VWS V14.01,2013-01-25 23:30:00,
2013-01-25 18:33:00,19.4,15.6,30.04,SW,232,0.0,1.0,85,0.00,,---,0.00,0.00,VWS V14.01,2013-01-25 23:33:00,
2013-01-25 18:38:00,19.4,15.6,30.05,SW,232,0.0,1.0,85,0.00,,---,0.00,0.00,VWS V14.01,2013-01-25 23:38:00,
2013-01-25 18:43:00,19.4,15.6,30.05,SW,232,1.0,1.0,85,0.00,,---,0.00,0.00,VWS V14.01,2013-01-25 23:43:00,
2013-01-25 18:48:00,19.4,15.6,30.05,SW,232,1.0,2.0,85,0.00,,---,0.00,0.00,VWS V14.01,2013-01-25 23:48:00,
2013-01-25 18:53:00,19.5,15.7,30.05,SW,232,2.0,3.0,85,0.00,,---,0.00,0.00,VWS V14.01,2013-01-25 23:53:00,
2013-01-25 18:58:00,19.5,16.0,30.04,SW,234,3.0,4.0,86,0.00,,---,0.00,0.00,VWS V14.01,2013-01-25 23:58:00,
2013-01-25 19:00:00,19.5,15.7,30.05,SW,221,2.0,7.0,85,0.00,,---,0.00,0.00,VWS V14.01,2013-01-26 00:00:00,
2013-01-25 19:03:00,19.6,16.1,30.04,SW,234,3.0,3.0,86,0.00,,---,0.00,0.00,VWS V14.01,2013-01-26 00:03:00,
2013-01-25 19:08:00,19.6,16.1,30.05,WSW,244,3.0,6.0,86,0.00,,---,0.00,0.00,VWS V14.01,2013-01-26 00:08:00,
2013-01-25 19:14:00,19.7,16.2,30.05,SW,232,3.0,6.0,86,0.00,,---,0.00,0.00,VWS V14.01,2013-01-26 00:14:00,
2013-01-25 19:18:00,19.7,16.2,30.05,SW,228,4.0,6.0,86,0.00,,---,0.00,0.00,VWS V14.01,2013-01-26 00:18:00,
2013-01-25 19:23:00,19.7,16.2,30.05,SW,225,3.0,8.0,86,0.00,,---,0.00,0.00,VWS V14.01,2013-01-26 00:23:00,
2013-01-25 19:29:00,19.7,16.2,30.04,SW,217,4.0,8.0,86,0.00,,---,0.00,0.00,VWS V14.01,2013-01-26 00:29:00,
2013-01-25 19:30:00,19.5,16.0,30.06,SSW,211,3.0,9.0,86,0.00,,---,0.00,0.00,VWS V14.01,2013-01-26 00:30:00,
2013-01-25 19:34:00,19.7,16.2,30.05,SW,220,3.0,7.0,86,0.00,,---,0.00,0.00,VWS V14.01,2013-01-26 00:34:00,
2013-01-25 19:39:00,19.6,16.1,30.05,SW,225,3.0,7.0,86,0.00,,---,0.00,0.00,VWS V14.01,2013-01-26 00:39:00,
2013-01-25 19:44:00,19.6,16.1,30.05,WSW,240,3.0,7.0,86,0.00,,---,0.00,0.00,VWS V14.01,2013-01-26 00:44:00,
2013-01-25 19:49:00,19.6,16.1,30.05,SW,236,4.0,7.0,86,0.00,,---,0.00,0.00,VWS V14.01,2013-01-26 00:49:00,
2013-01-25 19:54:00,19.6,15.8,30.05,SW,216,4.0,7.0,85,0.00,,---,0.00,0.00,VWS V14.01,2013-01-26 00:54:00,
2013-01-25 19:59:00,19.6,16.1,30.05,SW,223,4.0,7.0,86,0.00,,---,0.00,0.00,VWS V14.01,2013-01-26 00:59:00,
2013-01-25 20:00:00,19.6,16.1,30.06,SSW,196,6.0,10.0,86,0.00,,---,0.00,0.00,VWS V14.01,2013-01-26 01:00:00,
2013-01-25 20:04:00,19.5,15.7,30.06,WSW,242,3.0,7.0,85,0.00,,---,0.00,0.00,VWS V14.01,2013-01-26 01:04:00,
2013-01-25 20:09:00,19.5,16.0,30.06,SW,232,7.0,9.0,86,0.00,,---,0.00,0.00,VWS V14.01,2013-01-26 01:09:00,
2013-01-25 20:14:00,19.5,16.0,30.05,SW,221,5.0,9.0,86,0.00,,---,0.00,0.00,VWS V14.01,2013-01-26 01:14:00,
2013-01-25 20:19:00,19.5,16.0,30.05,SW,221,3.0,9.0,86,0.00,,---,0.00,0.00,VWS V14.01,2013-01-26 01:19:00,
2013-01-25 20:24:00,19.5,16.0,30.06,SW,221,3.0,9.0,86,0.00,,---,0.00,0.00,VWS V14.01,2013-01-26 01:24:00,
2013-01-25 20:29:00,19.5,16.0,30.06,SW,228,3.0,9.0,86,0.00,,---,0.00,0.00,VWS V14.01,2013-01-26 01:29:00,
2013-01-25 20:30:00,19.8,16.6,30.10,WSW,250,3.0,7.0,87,0.00,,---,0.00,0.00,VWS V14.01,2013-01-26 01:30:00,
2013-01-25 20:34:00,19.5,16.0,30.06,SW,234,4.0,7.0,86,0.00,,---,0.00,0.00,VWS V14.01,2013-01-26 01:34:00,
2013-01-25 20:39:00,19.5,16.0,30.06,SW,216,4.0,7.0,86,0.00,,---,0.00,0.00,VWS V14.01,2013-01-26 01:39:00,
2013-01-25 20:44:00,19.5,16.0,30.07,SSW,208,4.0,8.0,86,0.00,,---,0.00,0.00,VWS V14.01,2013-01-26 01:44:00,
2013-01-25 20:49:00,19.6,16.1,30.07,WSW,237,5.0,9.0,86,0.00,,---,0.00,0.00,VWS V14.01,2013-01-26 01:49:00,
2013-01-25 20:54:00,19.6,16.1,30.07,SSW,212,5.0,9.0,86,0.00,,---,0.00,0.00,VWS V14.01,2013-01-26 01:54:00,
2013-01-25 20:59:00,19.6,16.1,30.07,SW,215,7.0,10.0,86,0.00,,---,0.00,0.00,VWS V14.01,2013-01-26 01:59:00,
2013-01-25 21:00:00,19.9,16.7,30.11,WSW,253,2.0,8.0,87,0.00,,---,0.00,0.00,VWS V14.01,2013-01-26 02:00:00,
2013-01-25 21:04:00,19.7,16.2,30.05,South,189,5.0,7.0,86,0.00,,---,0.00,0.00,VWS V14.01,2013-01-26 02:04:00,
2013-01-25 21:09:00,19.7,16.2,30.06,SSW,201,0.0,7.0,86,0.00,,---,0.00,0.00,VWS V14.01,2013-01-26 02:09:00,
2013-01-25 21:14:00,19.7,16.5,30.08,WSW,258,3.0,7.0,87,0.00,,---,0.00,0.00,VWS V14.01,2013-01-26 02:14:00,
2013-01-25 21:19:00,19.8,16.3,30.09,WSW,244,4.0,7.0,86,0.00,,---,0.00,0.00,VWS V14.01,2013-01-26 02:19:00,
2013-01-25 21:24:00,19.8,16.6,30.09,WSW,247,3.0,7.0,87,0.00,,---,0.00,0.00,VWS V14.01,2013-01-26 02:24:00,
2013-01-25 21:29:00,19.8,16.6,30.09,WSW,250,3.0,7.0,87,0.00,,---,0.00,0.00,VWS V14.01,2013-01-26 02:29:00,
2013-01-25 21:30:00,19.8,16.6,30.10,WSW,246,2.0,5.0,87,0.00,,---,0.00,0.00,VWS V14.01,2013-01-26 02:30:00,
2013-01-25 21:34:00,19.8,16.6,30.10,West,260,5.0,8.0,87,0.00,,---,0.00,0.00,VWS V14.01,2013-01-26 02:34:00,
2013-01-25 21:39:00,19.8,16.6,30.10,WSW,250,5.0,8.0,87,0.00,,---,0.00,0.00,VWS V14.01,2013-01-26 02:39:00,
2013-01-25 21:44:00,19.9,16.7,30.11,WSW,250,5.0,8.0,87,0.00,,---,0.00,0.00,VWS V14.01,2013-01-26 02:44:00,
2013-01-25 21:49:00,19.9,16.7,30.11,WSW,239,3.0,8.0,87,0.00,,---,0.00,0.00,VWS V14.01,2013-01-26 02:49:00,
2013-01-25 21:54:00,19.9,16.7,30.11,WSW,239,3.0,8.0,87,0.00,,---,0.00,0.00,VWS V14.01,2013-01-26 02:54:00,
2013-01-25 21:59:00,19.9,16.7,30.11,WSW,253,1.0,8.0,87,0.00,,---,0.00,0.00,VWS V14.01,2013-01-26 02:59:00,
2013-01-25 22:00:00,19.9,16.9,30.10,SW,215,3.0,6.0,88,0.00,,---,0.00,0.00,VWS V14.01,2013-01-26 03:00:00,
2013-01-25 22:04:00,19.9,16.7,30.11,WSW,247,2.0,5.0,87,0.00,,---,0.00,0.00,VWS V14.01,2013-01-26 03:04:00,
2013-01-25 22:09:00,19.9,16.7,30.10,WSW,247,1.0,5.0,87,0.00,,---,0.00,0.00,VWS V14.01,2013-01-26 03:09:00,
2013-01-25 22:14:00,19.9,16.7,30.11,WSW,247,2.0,5.0,87,0.00,,---,0.00,0.00,VWS V14.01,2013-01-26 03:14:00,
2013-01-25 22:19:00,19.8,16.6,30.11,WSW,246,3.0,5.0,87,0.00,,---,0.00,0.00,VWS V14.01,2013-01-26 03:19:00,
2013-01-25 22:24:00,19.8,16.6,30.11,WSW,246,2.0,5.0,87,0.00,,---,0.00,0.00,VWS V14.01,2013-01-26 03:24:00,
2013-01-25 22:29:00,19.8,16.6,30.11,WSW,246,2.0,5.0,87,0.00,,---,0.00,0.00,VWS V14.01,2013-01-26 03:29:00,
2013-01-25 22:30:00,20.2,17.5,30.10,SSW,209,3.0,6.0,89,0.00,,---,0.00,0.00,VWS V14.01,2013-01-26 03:30:00,
2013-01-25 22:34:00,19.8,16.6,30.10,WSW,246,1.0,4.0,87,0.00,,---,0.00,0.00,VWS V14.01,2013-01-26 03:34:00,
2013-01-25 22:39:00,19.8,16.6,30.10,WSW,245,4.0,4.0,87,0.00,,---,0.00,0.00,VWS V14.01,2013-01-26 03:39:00,
2013-01-25 22:44:00,19.8,16.8,30.10,SW,234,5.0,5.0,88,0.00,,---,0.00,0.00,VWS V14.01,2013-01-26 03:44:00,
2013-01-25 22:49:00,19.9,16.9,30.10,SW,215,3.0,6.0,88,0.00,,---,0.00,0.00,VWS V14.01,2013-01-26 03:49:00,
2013-01-25 22:54:00,19.9,16.9,30.10,SW,215,2.0,6.0,88,0.00,,---,0.00,0.00,VWS V14.01,2013-01-26 03:54:00,
2013-01-25 22:59:00,19.9,16.9,30.10,SW,215,3.0,6.0,88,0.00,,---,0.00,0.00,VWS V14.01,2013-01-26 03:59:00,
2013-01-25 23:00:00,20.9,18.4,30.10,SW,217,2.0,9.0,90,0.00,,---,0.00,0.00,VWS V14.01,2013-01-26 04:00:00,
2013-01-25 23:04:00,19.9,16.9,30.10,SW,215,3.0,5.0,88,0.00,,---,0.00,0.00,VWS V14.01,2013-01-26 04:04:00,
2013-01-25 23:09:00,19.9,16.9,30.10,SW,214,3.0,5.0,88,0.00,,---,0.00,0.00,VWS V14.01,2013-01-26 04:09:00,
2013-01-25 23:14:00,20.0,17.0,30.10,SSW,213,5.0,6.0,88,0.00,,---,0.00,0.00,VWS V14.01,2013-01-26 04:14:00,
2013-01-25 23:19:00,20.0,17.3,30.10,SSW,209,3.0,6.0,89,0.00,,---,0.00,0.00,VWS V14.01,2013-01-26 04:19:00,
2013-01-25 23:24:00,20.1,17.4,30.10,SSW,209,2.0,6.0,89,0.00,,---,0.00,0.00,VWS V14.01,2013-01-26 04:24:00,
2013-01-25 23:29:00,20.2,17.5,30.10,SSW,209,4.0,6.0,89,0.00,,---,0.00,0.00,VWS V14.01,2013-01-26 04:29:00,
2013-01-25 23:30:00,21.4,19.2,30.09,SSW,208,4.0,6.0,91,0.00,,---,0.00,0.00,VWS V14.01,2013-01-26 04:30:00,
2013-01-25 23:34:00,20.2,17.5,30.09,South,187,3.0,6.0,89,0.00,,---,0.00,0.00,VWS V14.01,2013-01-26 04:34:00,
2013-01-25 23:39:00,20.3,17.6,30.09,South,180,3.0,6.0,89,0.00,,---,0.00,0.00,VWS V14.01,2013-01-26 04:39:00,
2013-01-25 23:44:00,20.4,17.9,30.09,South,184,1.0,6.0,90,0.00,,---,0.00,0.00,VWS V14.01,2013-01-26 04:44:00,
2013-01-25 23:49:00,20.6,18.1,30.09,SSW,192,3.0,8.0,90,0.00,,---,0.00,0.00,VWS V14.01,2013-01-26 04:49:00,
2013-01-25 23:54:00,20.7,18.2,30.10,SSW,192,5.0,9.0,90,0.00,,---,0.00,0.00,VWS V14.01,2013-01-26 04:54:00,
2013-01-25 23:59:00,20.8,18.3,30.10,SW,219,5.0,9.0,90,0.00,,---,0.00,0.00,VWS V14.01,2013-01-26 04:59:00,